sensor_id;sensor_type;location;lat;lon;timestamp;P1;durP1;ratioP1;P2;durP2;ratioP2
70927;SDS011;58587;53.034;18.576;2022-12-28T00:03:47;13.65;;;4.45;;
70927;SDS011;58587;53.034;18.576;2022-12-28T00:06:13;12.60;;;4.27;;
70927;SDS011;58587;53.034;18.576;2022-12-28T00:08:39;14.25;;;4.93;;
70927;SDS011;58587;53.034;18.576;2022-12-28T00:11:06;11.35;;;4.57;;
70927;SDS011;58587;53.034;18.576;2022-12-28T00:13:33;8.90;;;4.60;;
70927;SDS011;58587;53.034;18.576;2022-12-28T00:18:58;11.90;;;4.93;;
70927;SDS011;58587;53.034;18.576;2022-12-28T00:21:25;11.30;;;5.03;;
70927;SDS011;58587;53.034;18.576;2022-12-28T00:23:52;11.88;;;5.05;;
70927;SDS011;58587;53.034;18.576;2022-12-28T00:26:20;12.70;;;4.80;;
70927;SDS011;58587;53.034;18.576;2022-12-28T00:28:46;9.77;;;4.65;;
70927;SDS011;58587;53.034;18.576;2022-12-28T00:31:12;16.90;;;5.05;;
70927;SDS011;58587;53.034;18.576;2022-12-28T00:33:38;14.10;;;5.18;;
70927;SDS011;58587;53.034;18.576;2022-12-28T00:36:04;13.17;;;5.17;;
70927;SDS011;58587;53.034;18.576;2022-12-28T00:38:30;12.88;;;5.45;;
70927;SDS011;58587;53.034;18.576;2022-12-28T00:40:59;13.20;;;5.15;;
70927;SDS011;58587;53.034;18.576;2022-12-28T00:43:24;15.60;;;6.38;;
70927;SDS011;58587;53.034;18.576;2022-12-28T00:45:50;14.00;;;5.57;;
70927;SDS011;58587;53.034;18.576;2022-12-28T00:48:15;15.60;;;6.07;;
70927;SDS011;58587;53.034;18.576;2022-12-28T00:50:41;13.75;;;6.05;;
70927;SDS011;58587;53.034;18.576;2022-12-28T00:53:07;13.23;;;5.30;;
70927;SDS011;58587;53.034;18.576;2022-12-28T00:55:32;12.38;;;5.63;;
70927;SDS011;58587;53.034;18.576;2022-12-28T00:57:58;11.60;;;5.60;;
70927;SDS011;58587;53.034;18.576;2022-12-28T01:00:25;17.45;;;5.68;;
70927;SDS011;58587;53.034;18.576;2022-12-28T01:02:51;11.93;;;5.53;;
70927;SDS011;58587;53.034;18.576;2022-12-28T01:05:16;14.43;;;5.90;;
70927;SDS011;58587;53.034;18.576;2022-12-28T01:07:41;13.10;;;5.82;;
70927;SDS011;58587;53.034;18.576;2022-12-28T01:10:07;13.13;;;5.97;;
70927;SDS011;58587;53.034;18.576;2022-12-28T01:12:32;14.70;;;5.70;;
70927;SDS011;58587;53.034;18.576;2022-12-28T01:14:58;16.50;;;6.53;;
70927;SDS011;58587;53.034;18.576;2022-12-28T01:17:23;14.40;;;5.97;;
70927;SDS011;58587;53.034;18.576;2022-12-28T01:19:49;15.07;;;6.30;;
70927;SDS011;58587;53.034;18.576;2022-12-28T01:22:14;17.10;;;6.90;;
70927;SDS011;58587;53.034;18.576;2022-12-28T01:24:39;19.00;;;8.80;;
70927;SDS011;58587;53.034;18.576;2022-12-28T01:27:05;20.27;;;10.50;;
70927;SDS011;58587;53.034;18.576;2022-12-28T01:29:30;20.77;;;9.43;;
70927;SDS011;58587;53.034;18.576;2022-12-28T01:31:56;21.17;;;9.50;;
70927;SDS011;58587;53.034;18.576;2022-12-28T01:34:21;19.80;;;10.30;;
70927;SDS011;58587;53.034;18.576;2022-12-28T01:36:47;22.63;;;11.23;;
70927;SDS011;58587;53.034;18.576;2022-12-28T01:39:12;19.73;;;9.93;;
70927;SDS011;58587;53.034;18.576;2022-12-28T01:41:38;18.73;;;8.43;;
70927;SDS011;58587;53.034;18.576;2022-12-28T01:52:15;20.83;;;8.30;;
70927;SDS011;58587;53.034;18.576;2022-12-28T01:54:31;17.85;;;8.60;;
70927;SDS011;58587;53.034;18.576;2022-12-28T01:57:00;17.90;;;8.68;;
70927;SDS011;58587;53.034;18.576;2022-12-28T01:59:27;16.17;;;7.03;;
70927;SDS011;58587;53.034;18.576;2022-12-28T02:01:55;19.80;;;7.38;;
70927;SDS011;58587;53.034;18.576;2022-12-28T02:04:21;18.53;;;8.13;;
70927;SDS011;58587;53.034;18.576;2022-12-28T02:06:46;17.60;;;7.67;;
70927;SDS011;58587;53.034;18.576;2022-12-28T02:09:13;20.45;;;8.35;;
70927;SDS011;58587;53.034;18.576;2022-12-28T02:11:43;19.70;;;8.52;;
70927;SDS011;58587;53.034;18.576;2022-12-28T02:14:09;20.33;;;8.27;;
70927;SDS011;58587;53.034;18.576;2022-12-28T02:16:35;20.85;;;8.20;;
70927;SDS011;58587;53.034;18.576;2022-12-28T02:19:01;15.68;;;8.20;;
70927;SDS011;58587;53.034;18.576;2022-12-28T02:30:08;21.23;;;10.98;;
70927;SDS011;58587;53.034;18.576;2022-12-28T02:32:39;34.65;;;10.63;;
70927;SDS011;58587;53.034;18.576;2022-12-28T02:35:22;31.50;;;11.50;;
70927;SDS011;58587;53.034;18.576;2022-12-28T02:37:55;31.05;;;12.32;;
70927;SDS011;58587;53.034;18.576;2022-12-28T02:40:30;27.73;;;11.88;;
70927;SDS011;58587;53.034;18.576;2022-12-28T02:42:59;29.33;;;13.40;;
70927;SDS011;58587;53.034;18.576;2022-12-28T02:48:17;29.50;;;13.30;;
70927;SDS011;58587;53.034;18.576;2022-12-28T02:53:41;33.05;;;14.93;;
70927;SDS011;58587;53.034;18.576;2022-12-28T03:01:50;28.33;;;12.32;;
70927;SDS011;58587;53.034;18.576;2022-12-28T03:07:19;28.17;;;11.68;;
70927;SDS011;58587;53.034;18.576;2022-12-28T03:13:16;27.00;;;11.75;;
70927;SDS011;58587;53.034;18.576;2022-12-28T03:16:05;26.20;;;13.40;;
70927;SDS011;58587;53.034;18.576;2022-12-28T03:18:34;26.73;;;12.70;;
70927;SDS011;58587;53.034;18.576;2022-12-28T03:21:22;27.33;;;11.70;;
70927;SDS011;58587;53.034;18.576;2022-12-28T03:24:08;29.00;;;14.40;;
70927;SDS011;58587;53.034;18.576;2022-12-28T03:26:56;30.92;;;12.25;;
70927;SDS011;58587;53.034;18.576;2022-12-28T03:29:44;23.77;;;10.25;;
70927;SDS011;58587;53.034;18.576;2022-12-28T03:32:32;27.00;;;10.30;;
70927;SDS011;58587;53.034;18.576;2022-12-28T03:34:57;23.70;;;10.50;;
70927;SDS011;58587;53.034;18.576;2022-12-28T03:42:40;26.50;;;13.30;;
70927;SDS011;58587;53.034;18.576;2022-12-28T03:45:31;35.05;;;14.02;;
70927;SDS011;58587;53.034;18.576;2022-12-28T03:47:58;23.58;;;10.88;;
70927;SDS011;58587;53.034;18.576;2022-12-28T03:50:26;23.38;;;12.02;;
70927;SDS011;58587;53.034;18.576;2022-12-28T03:52:52;26.20;;;12.32;;
70927;SDS011;58587;53.034;18.576;2022-12-28T03:55:17;26.87;;;11.70;;
70927;SDS011;58587;53.034;18.576;2022-12-28T03:57:43;26.03;;;11.33;;
70927;SDS011;58587;53.034;18.576;2022-12-28T04:00:09;26.03;;;11.63;;
70927;SDS011;58587;53.034;18.576;2022-12-28T04:02:35;25.73;;;11.57;;
70927;SDS011;58587;53.034;18.576;2022-12-28T04:05:01;31.83;;;13.02;;
70927;SDS011;58587;53.034;18.576;2022-12-28T04:07:27;27.33;;;11.93;;
70927;SDS011;58587;53.034;18.576;2022-12-28T04:09:52;28.83;;;12.55;;
70927;SDS011;58587;53.034;18.576;2022-12-28T04:12:18;25.73;;;11.47;;
70927;SDS011;58587;53.034;18.576;2022-12-28T04:14:43;24.77;;;12.03;;
70927;SDS011;58587;53.034;18.576;2022-12-28T04:17:08;27.77;;;12.40;;
70927;SDS011;58587;53.034;18.576;2022-12-28T04:19:34;30.23;;;13.17;;
70927;SDS011;58587;53.034;18.576;2022-12-28T04:21:59;27.00;;;12.50;;
70927;SDS011;58587;53.034;18.576;2022-12-28T04:24:24;31.17;;;13.87;;
70927;SDS011;58587;53.034;18.576;2022-12-28T04:26:49;28.30;;;13.63;;
70927;SDS011;58587;53.034;18.576;2022-12-28T04:29:15;35.67;;;14.13;;
70927;SDS011;58587;53.034;18.576;2022-12-28T04:31:40;31.63;;;14.03;;
70927;SDS011;58587;53.034;18.576;2022-12-28T04:34:06;32.73;;;14.27;;
70927;SDS011;58587;53.034;18.576;2022-12-28T04:36:31;31.27;;;14.43;;
70927;SDS011;58587;53.034;18.576;2022-12-28T04:38:57;31.75;;;12.93;;
70927;SDS011;58587;53.034;18.576;2022-12-28T04:41:23;23.77;;;12.00;;
70927;SDS011;58587;53.034;18.576;2022-12-28T04:43:49;28.10;;;12.52;;
70927;SDS011;58587;53.034;18.576;2022-12-28T04:46:15;25.80;;;12.30;;
70927;SDS011;58587;53.034;18.576;2022-12-28T04:48:41;28.33;;;12.02;;
70927;SDS011;58587;53.034;18.576;2022-12-28T04:51:07;24.17;;;12.17;;
70927;SDS011;58587;53.034;18.576;2022-12-28T04:53:39;26.48;;;12.07;;
70927;SDS011;58587;53.034;18.576;2022-12-28T04:56:05;25.10;;;12.15;;
70927;SDS011;58587;53.034;18.576;2022-12-28T04:58:32;24.08;;;12.15;;
70927;SDS011;58587;53.034;18.576;2022-12-28T05:01:02;22.77;;;10.90;;
70927;SDS011;58587;53.034;18.576;2022-12-28T05:03:33;25.77;;;12.70;;
70927;SDS011;58587;53.034;18.576;2022-12-28T05:05:59;27.13;;;12.45;;
70927;SDS011;58587;53.034;18.576;2022-12-28T05:08:25;27.47;;;11.83;;
70927;SDS011;58587;53.034;18.576;2022-12-28T05:10:50;25.45;;;12.55;;
70927;SDS011;58587;53.034;18.576;2022-12-28T05:13:16;22.92;;;12.23;;
70927;SDS011;58587;53.034;18.576;2022-12-28T05:15:41;22.50;;;10.13;;
70927;SDS011;58587;53.034;18.576;2022-12-28T05:18:06;26.07;;;11.70;;
70927;SDS011;58587;53.034;18.576;2022-12-28T05:20:31;26.37;;;11.30;;
70927;SDS011;58587;53.034;18.576;2022-12-28T05:22:57;22.73;;;10.63;;
70927;SDS011;58587;53.034;18.576;2022-12-28T05:25:22;17.40;;;8.37;;
70927;SDS011;58587;53.034;18.576;2022-12-28T05:27:47;29.10;;;10.40;;
70927;SDS011;58587;53.034;18.576;2022-12-28T05:30:13;17.97;;;9.67;;
70927;SDS011;58587;53.034;18.576;2022-12-28T05:32:38;23.23;;;10.87;;
70927;SDS011;58587;53.034;18.576;2022-12-28T05:35:03;23.35;;;10.13;;
70927;SDS011;58587;53.034;18.576;2022-12-28T05:37:29;18.38;;;10.15;;
70927;SDS011;58587;53.034;18.576;2022-12-28T05:39:54;23.30;;;11.40;;
70927;SDS011;58587;53.034;18.576;2022-12-28T05:42:20;27.45;;;11.93;;
70927;SDS011;58587;53.034;18.576;2022-12-28T05:44:45;22.27;;;9.17;;
70927;SDS011;58587;53.034;18.576;2022-12-28T05:47:11;19.77;;;9.53;;
70927;SDS011;58587;53.034;18.576;2022-12-28T05:49:37;28.25;;;11.20;;
70927;SDS011;58587;53.034;18.576;2022-12-28T05:52:03;22.07;;;10.70;;
70927;SDS011;58587;53.034;18.576;2022-12-28T05:54:28;22.70;;;10.00;;
70927;SDS011;58587;53.034;18.576;2022-12-28T05:56:53;21.10;;;9.27;;
70927;SDS011;58587;53.034;18.576;2022-12-28T05:59:19;19.70;;;9.97;;
70927;SDS011;58587;53.034;18.576;2022-12-28T06:01:44;19.17;;;9.70;;
70927;SDS011;58587;53.034;18.576;2022-12-28T06:04:12;21.42;;;9.50;;
70927;SDS011;58587;53.034;18.576;2022-12-28T06:06:42;23.38;;;10.43;;
70927;SDS011;58587;53.034;18.576;2022-12-28T06:09:09;22.00;;;10.27;;
70927;SDS011;58587;53.034;18.576;2022-12-28T06:11:34;23.03;;;10.60;;
70927;SDS011;58587;53.034;18.576;2022-12-28T06:14:00;22.02;;;10.88;;
70927;SDS011;58587;53.034;18.576;2022-12-28T06:16:28;23.73;;;10.52;;
70927;SDS011;58587;53.034;18.576;2022-12-28T06:18:55;22.20;;;11.83;;
70927;SDS011;58587;53.034;18.576;2022-12-28T06:21:22;21.55;;;10.57;;
70927;SDS011;58587;53.034;18.576;2022-12-28T06:23:49;20.45;;;8.65;;
70927;SDS011;58587;53.034;18.576;2022-12-28T06:26:19;18.17;;;9.40;;
70927;SDS011;58587;53.034;18.576;2022-12-28T06:28:45;23.20;;;10.48;;
70927;SDS011;58587;53.034;18.576;2022-12-28T06:31:13;20.58;;;10.13;;
70927;SDS011;58587;53.034;18.576;2022-12-28T06:33:42;15.67;;;8.67;;
70927;SDS011;58587;53.034;18.576;2022-12-28T06:36:11;22.50;;;11.43;;
70927;SDS011;58587;53.034;18.576;2022-12-28T06:38:39;20.23;;;11.45;;
70927;SDS011;58587;53.034;18.576;2022-12-28T06:41:05;18.23;;;9.30;;
70927;SDS011;58587;53.034;18.576;2022-12-28T06:43:32;22.77;;;10.33;;
70927;SDS011;58587;53.034;18.576;2022-12-28T06:45:58;21.27;;;9.65;;
70927;SDS011;58587;53.034;18.576;2022-12-28T06:48:24;20.75;;;9.45;;
70927;SDS011;58587;53.034;18.576;2022-12-28T06:50:53;26.43;;;13.50;;
70927;SDS011;58587;53.034;18.576;2022-12-28T06:53:26;36.05;;;19.05;;
70927;SDS011;58587;53.034;18.576;2022-12-28T06:55:58;45.00;;;23.77;;
70927;SDS011;58587;53.034;18.576;2022-12-28T06:58:26;31.47;;;17.00;;
70927;SDS011;58587;53.034;18.576;2022-12-28T07:00:52;27.90;;;12.13;;
70927;SDS011;58587;53.034;18.576;2022-12-28T07:03:18;22.05;;;13.40;;
70927;SDS011;58587;53.034;18.576;2022-12-28T07:05:44;19.85;;;10.95;;
70927;SDS011;58587;53.034;18.576;2022-12-28T07:08:09;22.90;;;11.50;;
70927;SDS011;58587;53.034;18.576;2022-12-28T07:10:35;19.83;;;10.30;;
70927;SDS011;58587;53.034;18.576;2022-12-28T07:13:01;24.85;;;12.38;;
70927;SDS011;58587;53.034;18.576;2022-12-28T07:15:27;28.10;;;12.93;;
70927;SDS011;58587;53.034;18.576;2022-12-28T07:17:52;20.07;;;10.70;;
70927;SDS011;58587;53.034;18.576;2022-12-28T07:20:17;22.38;;;10.23;;
70927;SDS011;58587;53.034;18.576;2022-12-28T07:22:43;31.10;;;11.57;;
70927;SDS011;58587;53.034;18.576;2022-12-28T07:25:08;20.70;;;10.67;;
70927;SDS011;58587;53.034;18.576;2022-12-28T07:27:36;23.33;;;11.30;;
70927;SDS011;58587;53.034;18.576;2022-12-28T07:30:02;19.10;;;9.82;;
70927;SDS011;58587;53.034;18.576;2022-12-28T07:32:28;24.85;;;13.52;;
70927;SDS011;58587;53.034;18.576;2022-12-28T07:34:53;35.37;;;16.57;;
70927;SDS011;58587;53.034;18.576;2022-12-28T07:37:19;27.93;;;12.70;;
70927;SDS011;58587;53.034;18.576;2022-12-28T07:39:44;23.73;;;11.33;;
70927;SDS011;58587;53.034;18.576;2022-12-28T07:42:09;24.60;;;12.07;;
70927;SDS011;58587;53.034;18.576;2022-12-28T07:44:36;20.58;;;10.38;;
70927;SDS011;58587;53.034;18.576;2022-12-28T07:47:02;21.33;;;10.50;;
70927;SDS011;58587;53.034;18.576;2022-12-28T07:49:27;23.80;;;10.57;;
70927;SDS011;58587;53.034;18.576;2022-12-28T07:51:53;22.33;;;10.07;;
70927;SDS011;58587;53.034;18.576;2022-12-28T07:54:18;20.97;;;10.60;;
70927;SDS011;58587;53.034;18.576;2022-12-28T07:56:43;21.70;;;10.60;;
70927;SDS011;58587;53.034;18.576;2022-12-28T07:59:09;20.45;;;9.50;;
70927;SDS011;58587;53.034;18.576;2022-12-28T08:01:37;19.30;;;9.27;;
70927;SDS011;58587;53.034;18.576;2022-12-28T08:04:04;19.92;;;10.35;;
70927;SDS011;58587;53.034;18.576;2022-12-28T08:06:32;26.05;;;12.93;;
70927;SDS011;58587;53.034;18.576;2022-12-28T08:09:00;27.73;;;12.07;;
70927;SDS011;58587;53.034;18.576;2022-12-28T08:11:28;18.90;;;9.77;;
70927;SDS011;58587;53.034;18.576;2022-12-28T08:13:55;23.30;;;11.45;;
70927;SDS011;58587;53.034;18.576;2022-12-28T08:16:22;26.42;;;12.52;;
70927;SDS011;58587;53.034;18.576;2022-12-28T08:18:49;24.80;;;14.25;;
70927;SDS011;58587;53.034;18.576;2022-12-28T08:21:36;23.27;;;11.07;;
70927;SDS011;58587;53.034;18.576;2022-12-28T08:24:08;18.77;;;9.20;;
70927;SDS011;58587;53.034;18.576;2022-12-28T08:26:37;20.67;;;10.48;;
70927;SDS011;58587;53.034;18.576;2022-12-28T08:29:05;24.58;;;11.52;;
70927;SDS011;58587;53.034;18.576;2022-12-28T08:31:33;27.50;;;13.93;;
70927;SDS011;58587;53.034;18.576;2022-12-28T08:34:00;21.20;;;11.27;;
70927;SDS011;58587;53.034;18.576;2022-12-28T08:36:27;20.15;;;10.48;;
70927;SDS011;58587;53.034;18.576;2022-12-28T08:38:54;21.00;;;11.38;;
70927;SDS011;58587;53.034;18.576;2022-12-28T08:41:20;18.70;;;8.90;;
70927;SDS011;58587;53.034;18.576;2022-12-28T08:43:47;28.13;;;13.27;;
70927;SDS011;58587;53.034;18.576;2022-12-28T08:46:14;23.60;;;11.10;;
70927;SDS011;58587;53.034;18.576;2022-12-28T08:48:41;23.07;;;12.03;;
70927;SDS011;58587;53.034;18.576;2022-12-28T08:51:08;19.63;;;7.68;;
70927;SDS011;58587;53.034;18.576;2022-12-28T08:53:35;22.45;;;11.55;;
70927;SDS011;58587;53.034;18.576;2022-12-28T08:56:02;23.05;;;11.20;;
70927;SDS011;58587;53.034;18.576;2022-12-28T08:58:48;20.67;;;10.40;;
70927;SDS011;58587;53.034;18.576;2022-12-28T09:01:14;24.57;;;8.93;;
70927;SDS011;58587;53.034;18.576;2022-12-28T09:03:43;14.23;;;6.93;;
70927;SDS011;58587;53.034;18.576;2022-12-28T09:06:10;15.23;;;7.30;;
70927;SDS011;58587;53.034;18.576;2022-12-28T09:08:38;19.92;;;7.97;;
70927;SDS011;58587;53.034;18.576;2022-12-28T09:11:05;17.83;;;8.55;;
70927;SDS011;58587;53.034;18.576;2022-12-28T09:13:33;16.40;;;6.50;;
70927;SDS011;58587;53.034;18.576;2022-12-28T09:16:03;15.15;;;6.13;;
70927;SDS011;58587;53.034;18.576;2022-12-28T09:18:33;16.67;;;6.95;;
70927;SDS011;58587;53.034;18.576;2022-12-28T09:21:12;13.52;;;6.63;;
70927;SDS011;58587;53.034;18.576;2022-12-28T09:23:39;13.97;;;7.17;;
70927;SDS011;58587;53.034;18.576;2022-12-28T09:26:16;18.08;;;8.35;;
70927;SDS011;58587;53.034;18.576;2022-12-28T09:28:56;15.63;;;7.60;;
70927;SDS011;58587;53.034;18.576;2022-12-28T09:31:23;16.77;;;7.47;;
70927;SDS011;58587;53.034;18.576;2022-12-28T09:33:51;16.27;;;7.70;;
70927;SDS011;58587;53.034;18.576;2022-12-28T09:38:55;16.67;;;7.45;;
70927;SDS011;58587;53.034;18.576;2022-12-28T09:41:24;14.65;;;7.22;;
70927;SDS011;58587;53.034;18.576;2022-12-28T09:43:51;16.08;;;7.55;;
70927;SDS011;58587;53.034;18.576;2022-12-28T09:46:20;14.13;;;7.30;;
70927;SDS011;58587;53.034;18.576;2022-12-28T09:48:49;13.17;;;6.80;;
70927;SDS011;58587;53.034;18.576;2022-12-28T09:51:20;14.65;;;7.25;;
70927;SDS011;58587;53.034;18.576;2022-12-28T09:53:52;14.73;;;7.05;;
70927;SDS011;58587;53.034;18.576;2022-12-28T09:59:04;15.18;;;6.57;;
70927;SDS011;58587;53.034;18.576;2022-12-28T10:01:32;15.55;;;7.15;;
70927;SDS011;58587;53.034;18.576;2022-12-28T10:03:59;15.57;;;7.43;;
70927;SDS011;58587;53.034;18.576;2022-12-28T10:06:27;19.45;;;6.93;;
70927;SDS011;58587;53.034;18.576;2022-12-28T10:08:56;19.45;;;9.15;;
70927;SDS011;58587;53.034;18.576;2022-12-28T10:11:28;15.77;;;7.10;;
70927;SDS011;58587;53.034;18.576;2022-12-28T10:14:00;25.30;;;11.73;;
70927;SDS011;58587;53.034;18.576;2022-12-28T10:16:28;17.33;;;7.70;;
70927;SDS011;58587;53.034;18.576;2022-12-28T10:18:56;17.67;;;9.32;;
70927;SDS011;58587;53.034;18.576;2022-12-28T10:21:23;14.50;;;8.23;;
70927;SDS011;58587;53.034;18.576;2022-12-28T10:23:52;15.38;;;8.77;;
70927;SDS011;58587;53.034;18.576;2022-12-28T10:26:19;20.58;;;8.70;;
70927;SDS011;58587;53.034;18.576;2022-12-28T10:28:49;15.27;;;7.47;;
70927;SDS011;58587;53.034;18.576;2022-12-28T10:31:28;17.92;;;8.80;;
70927;SDS011;58587;53.034;18.576;2022-12-28T10:33:59;17.45;;;8.82;;
70927;SDS011;58587;53.034;18.576;2022-12-28T10:36:25;18.38;;;8.00;;
70927;SDS011;58587;53.034;18.576;2022-12-28T10:38:55;26.20;;;13.47;;
70927;SDS011;58587;53.034;18.576;2022-12-28T10:41:21;20.85;;;13.07;;
70927;SDS011;58587;53.034;18.576;2022-12-28T10:43:56;32.50;;;17.80;;
70927;SDS011;58587;53.034;18.576;2022-12-28T10:46:22;30.98;;;17.02;;
70927;SDS011;58587;53.034;18.576;2022-12-28T10:48:52;32.35;;;20.58;;
70927;SDS011;58587;53.034;18.576;2022-12-28T10:51:20;16.37;;;10.40;;
70927;SDS011;58587;53.034;18.576;2022-12-28T10:53:48;26.73;;;16.02;;
70927;SDS011;58587;53.034;18.576;2022-12-28T10:56:24;17.55;;;9.15;;
70927;SDS011;58587;53.034;18.576;2022-12-28T10:59:18;21.35;;;11.25;;
70927;SDS011;58587;53.034;18.576;2022-12-28T11:01:51;22.77;;;7.40;;
70927;SDS011;58587;53.034;18.576;2022-12-28T11:04:18;13.63;;;6.23;;
70927;SDS011;58587;53.034;18.576;2022-12-28T11:06:53;14.70;;;7.45;;
70927;SDS011;58587;53.034;18.576;2022-12-28T11:09:24;16.77;;;7.60;;
70927;SDS011;58587;53.034;18.576;2022-12-28T11:11:52;18.80;;;9.93;;
70927;SDS011;58587;53.034;18.576;2022-12-28T11:14:24;18.30;;;9.73;;
70927;SDS011;58587;53.034;18.576;2022-12-28T11:16:55;20.05;;;9.68;;
70927;SDS011;58587;53.034;18.576;2022-12-28T11:22:42;20.20;;;12.32;;
70927;SDS011;58587;53.034;18.576;2022-12-28T11:25:10;20.95;;;11.82;;
70927;SDS011;58587;53.034;18.576;2022-12-28T11:27:41;20.67;;;11.88;;
70927;SDS011;58587;53.034;18.576;2022-12-28T11:30:11;19.05;;;9.30;;
70927;SDS011;58587;53.034;18.576;2022-12-28T11:32:41;18.00;;;12.07;;
70927;SDS011;58587;53.034;18.576;2022-12-28T11:35:14;33.35;;;22.92;;
70927;SDS011;58587;53.034;18.576;2022-12-28T11:37:57;14.35;;;7.47;;
70927;SDS011;58587;53.034;18.576;2022-12-28T11:43:34;25.58;;;16.48;;
70927;SDS011;58587;53.034;18.576;2022-12-28T11:46:03;15.40;;;7.57;;
70927;SDS011;58587;53.034;18.576;2022-12-28T11:59:30;20.97;;;13.10;;
70927;SDS011;58587;53.034;18.576;2022-12-28T12:01:57;23.25;;;13.10;;
70927;SDS011;58587;53.034;18.576;2022-12-28T12:04:34;13.95;;;7.80;;
70927;SDS011;58587;53.034;18.576;2022-12-28T12:07:05;28.75;;;15.98;;
70927;SDS011;58587;53.034;18.576;2022-12-28T12:14:41;57.22;;;27.02;;
70927;SDS011;58587;53.034;18.576;2022-12-28T12:17:12;23.90;;;11.98;;
70927;SDS011;58587;53.034;18.576;2022-12-28T12:19:39;25.63;;;14.40;;
70927;SDS011;58587;53.034;18.576;2022-12-28T12:24:43;90.27;;;58.37;;
70927;SDS011;58587;53.034;18.576;2022-12-28T12:27:14;64.63;;;22.15;;
70927;SDS011;58587;53.034;18.576;2022-12-28T12:29:52;35.33;;;19.83;;
70927;SDS011;58587;53.034;18.576;2022-12-28T12:32:24;41.47;;;15.57;;
70927;SDS011;58587;53.034;18.576;2022-12-28T12:35:05;195.98;;;52.20;;
70927;SDS011;58587;53.034;18.576;2022-12-28T12:37:45;147.20;;;40.87;;
70927;SDS011;58587;53.034;18.576;2022-12-28T12:40:26;195.23;;;44.22;;
70927;SDS011;58587;53.034;18.576;2022-12-28T12:43:25;69.65;;;19.08;;
70927;SDS011;58587;53.034;18.576;2022-12-28T12:46:06;51.22;;;16.23;;
70927;SDS011;58587;53.034;18.576;2022-12-28T12:48:42;39.90;;;14.63;;
70927;SDS011;58587;53.034;18.576;2022-12-28T12:57:29;60.58;;;22.83;;
70927;SDS011;58587;53.034;18.576;2022-12-28T13:00:15;56.00;;;25.60;;
70927;SDS011;58587;53.034;18.576;2022-12-28T13:05:28;85.63;;;30.67;;
70927;SDS011;58587;53.034;18.576;2022-12-28T13:11:25;87.90;;;25.88;;
70927;SDS011;58587;53.034;18.576;2022-12-28T13:16:51;153.32;;;40.25;;
70927;SDS011;58587;53.034;18.576;2022-12-28T13:19:27;108.37;;;30.10;;
70927;SDS011;58587;53.034;18.576;2022-12-28T13:21:54;93.78;;;27.67;;
70927;SDS011;58587;53.034;18.576;2022-12-28T13:27:20;131.32;;;34.33;;
70927;SDS011;58587;53.034;18.576;2022-12-28T13:29:51;189.73;;;48.75;;
70927;SDS011;58587;53.034;18.576;2022-12-28T13:35:14;85.30;;;36.95;;
70927;SDS011;58587;53.034;18.576;2022-12-28T13:37:58;80.40;;;44.45;;
70927;SDS011;58587;53.034;18.576;2022-12-28T13:40:30;26.35;;;15.07;;
70927;SDS011;58587;53.034;18.576;2022-12-28T13:46:01;142.50;;;44.57;;
70927;SDS011;58587;53.034;18.576;2022-12-28T13:48:32;34.65;;;16.95;;
70927;SDS011;58587;53.034;18.576;2022-12-28T13:51:16;64.95;;;29.77;;
70927;SDS011;58587;53.034;18.576;2022-12-28T13:53:45;90.88;;;31.95;;
70927;SDS011;58587;53.034;18.576;2022-12-28T13:56:18;72.80;;;24.48;;
70927;SDS011;58587;53.034;18.576;2022-12-28T13:58:49;31.40;;;14.97;;
70927;SDS011;58587;53.034;18.576;2022-12-28T14:01:29;48.42;;;18.58;;
70927;SDS011;58587;53.034;18.576;2022-12-28T14:04:06;40.78;;;17.92;;
70927;SDS011;58587;53.034;18.576;2022-12-28T14:06:42;47.80;;;18.88;;
70927;SDS011;58587;53.034;18.576;2022-12-28T14:09:16;29.17;;;12.85;;
70927;SDS011;58587;53.034;18.576;2022-12-28T14:12:00;24.47;;;11.87;;
70927;SDS011;58587;53.034;18.576;2022-12-28T14:14:26;29.77;;;14.52;;
70927;SDS011;58587;53.034;18.576;2022-12-28T14:17:20;44.00;;;27.02;;
70927;SDS011;58587;53.034;18.576;2022-12-28T14:19:58;23.60;;;12.50;;
70927;SDS011;58587;53.034;18.576;2022-12-28T14:22:34;25.52;;;14.65;;
70927;SDS011;58587;53.034;18.576;2022-12-28T14:25:13;22.70;;;12.23;;
70927;SDS011;58587;53.034;18.576;2022-12-28T14:28:04;25.50;;;13.82;;
70927;SDS011;58587;53.034;18.576;2022-12-28T14:30:41;25.90;;;13.80;;
70927;SDS011;58587;53.034;18.576;2022-12-28T14:33:21;19.52;;;9.25;;
70927;SDS011;58587;53.034;18.576;2022-12-28T14:35:51;29.67;;;13.60;;
70927;SDS011;58587;53.034;18.576;2022-12-28T14:38:28;27.47;;;12.60;;
70927;SDS011;58587;53.034;18.576;2022-12-28T14:41:16;30.35;;;13.85;;
70927;SDS011;58587;53.034;18.576;2022-12-28T14:43:54;41.08;;;17.13;;
70927;SDS011;58587;53.034;18.576;2022-12-28T14:46:40;34.25;;;14.70;;
70927;SDS011;58587;53.034;18.576;2022-12-28T14:51:54;37.97;;;15.40;;
70927;SDS011;58587;53.034;18.576;2022-12-28T14:54:26;22.13;;;9.90;;
70927;SDS011;58587;53.034;18.576;2022-12-28T14:57:02;28.25;;;13.30;;
70927;SDS011;58587;53.034;18.576;2022-12-28T14:59:41;19.27;;;9.95;;
70927;SDS011;58587;53.034;18.576;2022-12-28T15:03:19;24.50;;;11.90;;
70927;SDS011;58587;53.034;18.576;2022-12-28T15:08:02;23.92;;;10.70;;
70927;SDS011;58587;53.034;18.576;2022-12-28T15:10:27;20.08;;;10.15;;
70927;SDS011;58587;53.034;18.576;2022-12-28T15:13:02;22.13;;;13.67;;
70927;SDS011;58587;53.034;18.576;2022-12-28T15:15:27;19.73;;;11.48;;
70927;SDS011;58587;53.034;18.576;2022-12-28T15:17:53;42.78;;;17.85;;
70927;SDS011;58587;53.034;18.576;2022-12-28T15:20:18;52.23;;;21.37;;
70927;SDS011;58587;53.034;18.576;2022-12-28T15:22:46;34.40;;;14.50;;
70927;SDS011;58587;53.034;18.576;2022-12-28T15:25:33;98.03;;;32.08;;
70927;SDS011;58587;53.034;18.576;2022-12-28T15:28:15;27.25;;;11.10;;
70927;SDS011;58587;53.034;18.576;2022-12-28T15:31:02;30.33;;;11.83;;
70927;SDS011;58587;53.034;18.576;2022-12-28T15:33:29;42.53;;;16.90;;
70927;SDS011;58587;53.034;18.576;2022-12-28T15:36:01;33.43;;;13.53;;
70927;SDS011;58587;53.034;18.576;2022-12-28T15:38:28;37.83;;;15.18;;
70927;SDS011;58587;53.034;18.576;2022-12-28T15:40:53;34.77;;;15.73;;
70927;SDS011;58587;53.034;18.576;2022-12-28T15:43:19;21.20;;;11.60;;
70927;SDS011;58587;53.034;18.576;2022-12-28T15:45:51;22.07;;;10.67;;
70927;SDS011;58587;53.034;18.576;2022-12-28T15:48:17;26.17;;;12.77;;
70927;SDS011;58587;53.034;18.576;2022-12-28T15:50:42;23.43;;;12.20;;
70927;SDS011;58587;53.034;18.576;2022-12-28T15:53:08;25.80;;;11.07;;
70927;SDS011;58587;53.034;18.576;2022-12-28T15:55:33;18.87;;;8.67;;
70927;SDS011;58587;53.034;18.576;2022-12-28T15:57:58;25.47;;;12.33;;
70927;SDS011;58587;53.034;18.576;2022-12-28T16:00:24;20.92;;;10.93;;
70927;SDS011;58587;53.034;18.576;2022-12-28T16:02:49;19.30;;;8.40;;
70927;SDS011;58587;53.034;18.576;2022-12-28T16:05:14;16.90;;;8.07;;
70927;SDS011;58587;53.034;18.576;2022-12-28T16:07:40;18.67;;;8.97;;
70927;SDS011;58587;53.034;18.576;2022-12-28T16:10:05;29.93;;;12.50;;
70927;SDS011;58587;53.034;18.576;2022-12-28T16:12:30;17.17;;;8.80;;